Time;durP1;ratioP1;P1;durP2;ratioP2;P2;SDS_P1;SDS_P2;PMS_P1;PMS_P2;Temp;Humidity;BMP_temperature;BMP_pressure;BME280_temperature;BME280_humidity;BME280_pressure;Samples;Min_cycle;Max_cycle;Signal;HPM_P1;HPM_P2
2022/12/19 00:01:02;;;;;;;26.93;22.60;;;-0.10;97.50;;;;;;5030738;28;20443;-69
2022/12/19 00:03:30;;;;;;;31.67;24.35;;;-0.10;97.60;;;;;;5029653;28;20435;-69
2022/12/19 00:06:00;;;;;;;31.02;24.48;;;-0.10;97.70;;;;;;5030531;28;20544;-69
2022/12/19 00:08:27;;;;;;;32.42;25.73;;;-0.10;97.60;;;;;;5026173;28;20917;-69
2022/12/19 00:10:59;;;;;;;30.65;24.33;;;0.00;97.70;;;;;;5030547;28;20419;-68
2022/12/19 00:13:27;;;;;;;28.77;23.75;;;0.00;97.80;;;;;;5030291;28;20431;-69
2022/12/19 00:15:53;;;;;;;28.77;23.33;;;0.00;97.80;;;;;;5030653;28;20477;-69
2022/12/19 00:18:20;;;;;;;28.67;23.60;;;0.00;97.70;;;;;;5029796;28;20442;-69
2022/12/19 00:20:56;;;;;;;28.70;23.73;;;0.00;97.70;;;;;;5029665;28;20469;-68
2022/12/19 00:23:23;;;;;;;29.13;24.40;;;0.00;97.70;;;;;;5028455;28;20928;-68
2022/12/19 00:25:49;;;;;;;31.00;25.15;;;0.10;97.60;;;;;;5030234;28;20965;-69
2022/12/19 00:28:16;;;;;;;29.80;24.00;;;0.10;97.90;;;;;;5029574;28;20442;-69
2022/12/19 00:30:43;;;;;;;33.78;25.38;;;0.10;98.00;;;;;;5030129;28;20419;-68
2022/12/19 00:33:09;;;;;;;28.63;23.85;;;0.10;98.20;;;;;;5028472;28;20805;-68
2022/12/19 00:35:36;;;;;;;32.20;25.20;;;0.10;98.20;;;;;;5025597;28;20510;-69
2022/12/19 00:38:04;;;;;;;32.25;25.27;;;0.10;98.30;;;;;;5029156;28;20438;-69
2022/12/19 00:40:31;;;;;;;29.13;23.67;;;0.10;98.40;;;;;;5030382;28;20423;-68
2022/12/19 00:42:58;;;;;;;31.52;24.60;;;0.10;98.50;;;;;;5030670;28;20438;-67
2022/12/19 00:45:24;;;;;;;30.20;25.02;;;0.20;98.50;;;;;;5030960;28;20422;-68
2022/12/19 00:47:51;;;;;;;29.45;24.88;;;0.20;98.50;;;;;;5028976;28;20438;-68
2022/12/19 00:50:18;;;;;;;28.33;23.45;;;0.20;98.50;;;;;;5016765;28;20429;-68
2022/12/19 00:52:44;;;;;;;31.87;25.50;;;0.20;98.50;;;;;;5028289;28;20438;-68
2022/12/19 00:55:13;;;;;;;31.77;24.90;;;0.20;98.60;;;;;;5029116;28;20453;-68
2022/12/19 00:57:39;;;;;;;30.97;25.23;;;0.20;98.70;;;;;;5029491;28;20425;-69
2022/12/19 01:00:08;;;;;;;31.48;24.85;;;0.30;98.70;;;;;;5029958;28;20446;-69
2022/12/19 01:02:34;;;;;;;31.90;25.80;;;0.30;98.70;;;;;;5028040;28;20519;-69
2022/12/19 01:05:01;;;;;;;29.55;23.83;;;0.40;98.60;;;;;;5029697;28;20419;-66
2022/12/19 01:07:28;;;;;;;29.02;23.55;;;0.40;98.70;;;;;;5027524;28;20446;-67
2022/12/19 01:09:54;;;;;;;31.00;25.00;;;0.40;99.20;;;;;;5029256;28;20415;-67
2022/12/19 01:15:08;;;;;;;28.38;24.25;;;0.50;98.60;;;;;;5029434;28;20450;-67
2022/12/19 01:17:35;;;;;;;28.70;23.88;;;0.40;98.60;;;;;;5028397;28;20435;-67
2022/12/19 01:20:01;;;;;;;32.53;25.05;;;0.50;98.70;;;;;;5028132;28;20446;-66
2022/12/19 01:22:28;;;;;;;34.13;26.17;;;0.50;98.90;;;;;;5026489;28;20450;-67
2022/12/19 01:24:55;;;;;;;31.75;25.23;;;0.50;99.20;;;;;;5029488;28;20419;-67
2022/12/19 01:27:23;;;;;;;31.85;26.02;;;0.40;99.40;;;;;;5028433;28;20426;-67
2022/12/19 01:29:50;;;;;;;35.30;26.60;;;0.50;99.60;;;;;;5029231;28;20486;-66
2022/12/19 01:32:16;;;;;;;33.45;27.67;;;0.40;99.90;;;;;;5027891;28;20503;-69
2022/12/19 01:34:43;;;;;;;34.08;27.77;;;0.50;99.90;;;;;;5027658;28;20438;-67
2022/12/19 01:37:10;;;;;;;35.05;27.10;;;0.40;99.90;;;;;;5028787;28;20415;-66
2022/12/19 01:39:37;;;;;;;31.92;26.08;;;0.50;99.90;;;;;;5029160;28;20414;-67
2022/12/19 01:42:05;;;;;;;31.67;26.03;;;0.50;99.90;;;;;;5029019;28;20885;-68
2022/12/19 01:44:34;;;;;;;34.00;26.52;;;0.60;99.90;;;;;;5027355;28;20430;-67
2022/12/19 01:47:01;;;;;;;30.90;24.75;;;0.60;99.90;;;;;;5027386;28;20810;-68
2022/12/19 01:49:31;;;;;;;29.65;25.58;;;0.60;99.90;;;;;;5027358;28;20435;-68
2022/12/19 01:52:01;;;;;;;31.55;25.17;;;0.70;99.90;;;;;;5028947;28;20415;-69
2022/12/19 01:54:31;;;;;;;30.98;24.73;;;0.70;99.90;;;;;;5040966;22;20462;-70
2022/12/19 01:56:59;;;;;;;31.13;25.30;;;0.70;99.90;;;;;;5022071;28;20449;-69
2022/12/19 01:59:29;;;;;;;30.75;24.75;;;0.80;99.90;;;;;;5014022;28;20485;-70
2022/12/19 02:02:07;;;;;;;30.95;25.30;;;0.70;99.90;;;;;;5025126;28;20458;-68
2022/12/19 02:04:36;;;;;;;30.08;24.67;;;0.80;99.80;;;;;;5027054;28;20539;-68
2022/12/19 02:07:04;;;;;;;29.30;24.80;;;0.80;99.60;;;;;;5017324;28;20486;-68
2022/12/19 02:09:31;;;;;;;28.92;23.92;;;0.80;99.70;;;;;;5023238;28;20431;-69
2022/12/19 02:11:59;;;;;;;29.60;23.42;;;0.90;99.60;;;;;;5020174;28;20426;-70
2022/12/19 02:14:26;;;;;;;29.88;24.67;;;0.90;99.50;;;;;;5025963;28;20799;-69
2022/12/19 02:17:00;;;;;;;28.48;23.75;;;0.90;99.30;;;;;;5025739;28;20423;-68
2022/12/19 02:20:07;;;;;;;26.95;22.25;;;0.90;99.30;;;;;;5015929;28;20443;-72
2022/12/19 02:22:44;;;;;;;28.77;23.63;;;1.00;99.20;;;;;;5003079;28;20435;-70
2022/12/19 02:25:30;;;;;;;27.98;23.40;;;0.90;99.10;;;;;;5008689;28;20427;-68
2022/12/19 02:28:36;;;;;;;27.65;22.30;;;1.00;99.00;;;;;;5025031;28;21018;-71
2022/12/19 02:31:12;;;;;;;27.33;22.75;;;1.00;98.80;;;;;;4990944;28;20947;-70
2022/12/19 02:33:44;;;;;;;27.50;22.75;;;1.00;98.70;;;;;;5015172;28;20904;-70
2022/12/19 02:36:18;;;;;;;28.10;22.98;;;1.10;98.60;;;;;;5025343;28;20411;-71
2022/12/19 02:38:51;;;;;;;27.63;23.58;;;1.10;98.60;;;;;;5025213;28;20929;-71
2022/12/19 02:41:23;;;;;;;25.80;21.63;;;1.10;98.60;;;;;;5025550;28;20423;-70
2022/12/19 02:43:54;;;;;;;26.65;23.48;;;1.10;98.40;;;;;;5011028;28;20442;-70
2022/12/19 02:46:24;;;;;;;25.92;23.10;;;1.10;98.30;;;;;;5017044;28;20430;-70
2022/12/19 02:48:51;;;;;;;28.15;22.98;;;1.10;98.20;;;;;;5018164;28;20427;-70
2022/12/19 02:51:18;;;;;;;27.10;22.48;;;1.10;98.10;;;;;;5026267;28;20870;-70
2022/12/19 02:53:45;;;;;;;29.15;23.67;;;1.10;98.00;;;;;;5026042;28;20423;-69
2022/12/19 02:56:39;;;;;;;26.77;21.77;;;1.10;97.90;;;;;;5030036;28;20439;-75
2022/12/19 02:59:19;;;;;;;26.30;22.05;;;1.10;97.90;;;;;;5029157;28;20481;-69
2022/12/19 03:01:51;;;;;;;27.50;22.63;;;1.10;98.10;;;;;;5031431;28;20455;-68
2022/12/19 03:04:30;;;;;;;29.53;23.43;;;1.10;98.00;;;;;;5014043;28;20457;-68
2022/12/19 03:07:03;;;;;;;29.13;23.85;;;1.20;98.00;;;;;;5025136;28;20429;-69
2022/12/19 03:09:39;;;;;;;26.92;21.95;;;1.20;98.00;;;;;;5015801;28;20462;-70
2022/12/19 03:12:14;;;;;;;26.95;22.15;;;1.20;98.00;;;;;;5005727;28;20432;-69
2022/12/19 03:14:42;;;;;;;26.80;21.85;;;1.20;97.90;;;;;;5011530;28;20893;-70
2022/12/19 03:17:10;;;;;;;26.10;21.77;;;1.20;97.80;;;;;;5022300;28;20436;-70
2022/12/19 03:19:39;;;;;;;29.58;23.65;;;1.20;97.90;;;;;;5023734;28;20435;-69
2022/12/19 03:22:07;;;;;;;29.65;23.60;;;1.20;98.10;;;;;;5015958;28;20973;-67
2022/12/19 03:24:34;;;;;;;29.58;22.92;;;1.20;98.40;;;;;;5024244;28;20438;-70
2022/12/19 03:27:05;;;;;;;30.48;24.67;;;1.20;98.60;;;;;;5024976;28;20509;-70
2022/12/19 03:29:36;;;;;;;30.25;24.00;;;1.20;98.80;;;;;;5023300;28;20435;-70
2022/12/19 03:32:07;;;;;;;28.40;23.00;;;1.20;98.90;;;;;;5027314;28;20435;-70
2022/12/19 03:34:39;;;;;;;27.30;23.90;;;1.10;99.20;;;;;;5012156;28;20432;-69
2022/12/19 03:37:13;;;;;;;32.38;25.10;;;1.10;99.30;;;;;;5021491;28;20506;-67
2022/12/19 03:39:43;;;;;;;29.33;24.20;;;1.10;99.50;;;;;;5024149;28;20434;-68
2022/12/19 03:45:04;;;;;;;31.30;24.38;;;1.20;99.90;;;;;;5006015;28;20555;-68
2022/12/19 03:47:37;;;;;;;30.33;23.70;;;1.20;99.90;;;;;;5014876;28;20443;-67
2022/12/19 03:50:06;;;;;;;32.08;24.73;;;1.20;99.90;;;;;;5024771;28;20434;-68
2022/12/19 03:52:40;;;;;;;29.40;23.88;;;1.20;99.90;;;;;;5024281;28;20458;-68
2022/12/19 03:55:13;;;;;;;27.58;23.67;;;1.20;99.90;;;;;;5024475;28;20956;-67
2022/12/19 03:57:43;;;;;;;29.35;24.02;;;1.20;99.90;;;;;;5019204;28;20495;-68
2022/12/19 04:00:13;;;;;;;29.40;24.13;;;1.30;99.90;;;;;;5018436;28;20458;-69
2022/12/19 04:02:43;;;;;;;30.50;24.60;;;1.30;99.90;;;;;;5026677;28;20428;-68
2022/12/19 04:05:14;;;;;;;31.80;25.20;;;1.30;99.90;;;;;;5024441;28;20426;-68
2022/12/19 04:07:42;;;;;;;32.37;26.00;;;1.30;99.90;;;;;;5021021;28;20492;-68
2022/12/19 04:10:13;;;;;;;32.13;26.50;;;1.30;99.90;;;;;;5018592;28;20430;-68
2022/12/19 04:12:44;;;;;;;31.88;25.05;;;1.30;99.90;;;;;;5022508;28;20435;-68
2022/12/19 04:15:12;;;;;;;32.50;25.73;;;1.30;99.90;;;;;;5019321;28;20577;-67
2022/12/19 04:17:43;;;;;;;31.95;26.95;;;1.30;99.90;;;;;;5022876;28;20462;-67
2022/12/19 04:20:14;;;;;;;34.25;26.63;;;1.30;99.90;;;;;;5024370;28;20449;-67
2022/12/19 04:22:43;;;;;;;33.30;27.20;;;1.30;99.90;;;;;;5027593;28;20841;-70
2022/12/19 04:25:13;;;;;;;34.58;26.02;;;1.30;99.90;;;;;;5027740;28;20483;-69
2022/12/19 04:27:46;;;;;;;32.95;27.63;;;1.40;99.90;;;;;;5026199;28;20434;-69
2022/12/19 04:30:15;;;;;;;35.72;25.80;;;1.40;99.90;;;;;;5023326;28;20420;-68
2022/12/19 04:32:45;;;;;;;34.45;28.17;;;1.40;99.90;;;;;;5020281;28;20801;-67
2022/12/19 04:35:14;;;;;;;32.28;27.10;;;1.40;99.90;;;;;;5015635;28;20429;-68
2022/12/19 04:37:41;;;;;;;34.42;28.40;;;1.40;99.90;;;;;;5021854;28;20422;-69
2022/12/19 04:40:09;;;;;;;38.03;28.52;;;1.40;99.90;;;;;;5026674;28;20438;-72
2022/12/19 04:42:36;;;;;;;36.22;27.63;;;1.40;99.90;;;;;;5025210;28;20873;-68
2022/12/19 04:45:04;;;;;;;38.63;28.95;;;1.40;99.90;;;;;;5026884;28;20846;-69
2022/12/19 04:47:31;;;;;;;38.25;29.30;;;1.40;99.90;;;;;;5027113;28;20441;-68
2022/12/19 04:49:57;;;;;;;39.47;30.30;;;1.40;99.90;;;;;;5025024;28;20445;-69
2022/12/19 04:52:26;;;;;;;39.95;28.38;;;1.40;99.90;;;;;;5021701;28;20430;-68
2022/12/19 04:54:52;;;;;;;38.60;28.60;;;1.40;99.90;;;;;;5021123;28;20430;-68
2022/12/19 04:57:19;;;;;;;39.30;30.33;;;1.40;99.90;;;;;;5019739;28;20442;-69
2022/12/19 04:59:46;;;;;;;39.30;28.63;;;1.50;99.90;;;;;;5010973;28;20455;-68
2022/12/19 05:02:12;;;;;;;37.75;29.25;;;1.50;99.90;;;;;;5029937;28;20514;-70
2022/12/19 05:04:39;;;;;;;40.47;30.30;;;1.50;99.90;;;;;;5036091;28;20431;-70
2022/12/19 05:07:06;;;;;;;40.88;29.95;;;1.50;99.90;;;;;;5032468;28;20430;-68
2022/12/19 05:09:34;;;;;;;41.38;31.13;;;1.50;99.90;;;;;;5028240;28;20415;-68
2022/12/19 05:12:01;;;;;;;37.20;29.38;;;1.50;99.90;;;;;;5028823;28;20439;-68
2022/12/19 05:14:27;;;;;;;40.15;30.85;;;1.60;99.90;;;;;;5025685;28;20431;-70
2022/12/19 05:16:54;;;;;;;40.75;30.20;;;1.60;99.90;;;;;;5031008;28;20458;-70
2022/12/19 05:19:21;;;;;;;43.17;31.50;;;1.60;99.90;;;;;;5035121;28;20466;-69
2022/12/19 05:21:47;;;;;;;44.67;31.45;;;1.60;99.90;;;;;;5030086;28;20430;-71
2022/12/19 05:24:14;;;;;;;41.33;30.92;;;1.70;99.90;;;;;;5034380;28;20419;-70
2022/12/19 05:26:42;;;;;;;40.33;31.42;;;1.70;99.90;;;;;;5028323;28;20864;-70
2022/12/19 05:29:09;;;;;;;39.03;30.25;;;1.70;99.90;;;;;;5032417;28;20439;-70
2022/12/19 05:31:36;;;;;;;37.92;29.45;;;1.70;99.90;;;;;;5018369;28;20442;-70
2022/12/19 05:34:02;;;;;;;37.45;28.20;;;1.80;99.90;;;;;;5026017;28;20447;-70
2022/12/19 05:36:29;;;;;;;39.10;29.90;;;1.80;99.90;;;;;;5026620;28;20439;-69
2022/12/19 05:38:56;;;;;;;38.28;28.83;;;1.90;99.90;;;;;;5021817;28;20822;-70
2022/12/19 05:41:23;;;;;;;35.55;27.60;;;1.90;99.90;;;;;;5018933;28;20421;-69
2022/12/19 05:43:52;;;;;;;37.90;29.20;;;1.90;99.90;;;;;;5027685;28;20422;-70
2022/12/19 05:46:20;;;;;;;36.15;28.45;;;1.90;99.90;;;;;;5030461;28;20409;-70
2022/12/19 05:48:47;;;;;;;33.35;27.67;;;2.00;99.90;;;;;;5045603;28;20446;-71
2022/12/19 05:51:14;;;;;;;36.20;28.25;;;2.00;99.90;;;;;;5023307;28;20435;-73
2022/12/19 05:53:41;;;;;;;32.20;25.88;;;2.10;99.90;;;;;;5025450;28;20430;-70
2022/12/19 05:56:10;;;;;;;32.67;27.30;;;2.10;99.90;;;;;;5013518;28;20454;-70
2022/12/19 05:58:37;;;;;;;31.93;25.30;;;2.20;99.90;;;;;;5026720;28;20448;-70
2022/12/19 06:01:07;;;;;;;34.00;26.88;;;2.20;99.90;;;;;;5013243;28;20871;-74
2022/12/19 06:03:35;;;;;;;36.78;27.42;;;2.20;99.90;;;;;;5017147;28;20423;-73
2022/12/19 06:06:03;;;;;;;32.72;27.10;;;2.20;99.90;;;;;;5032335;28;20448;-71
2022/12/19 06:08:30;;;;;;;31.30;25.00;;;2.20;99.90;;;;;;5039397;28;20439;-70
2022/12/19 06:10:59;;;;;;;31.50;25.90;;;2.30;99.90;;;;;;5036349;28;20769;-71
2022/12/19 06:13:27;;;;;;;29.08;24.85;;;2.30;99.90;;;;;;5025573;28;20435;-70
2022/12/19 06:15:57;;;;;;;32.53;26.20;;;2.40;99.90;;;;;;5021866;28;20437;-70
2022/12/19 06:18:26;;;;;;;29.25;24.92;;;2.50;99.90;;;;;;5021791;28;20501;-70
2022/12/19 06:20:57;;;;;;;33.28;24.85;;;2.50;99.90;;;;;;5024535;28;20458;-69
2022/12/19 06:23:24;;;;;;;32.28;25.40;;;2.50;99.90;;;;;;5024319;28;20483;-70
2022/12/19 06:25:51;;;;;;;31.25;25.73;;;2.60;99.90;;;;;;5017142;28;20431;-70
2022/12/19 06:28:18;;;;;;;29.08;25.58;;;2.60;99.90;;;;;;5021952;28;20868;-70
2022/12/19 06:30:45;;;;;;;29.13;25.05;;;2.70;99.90;;;;;;5022104;28;20434;-72
2022/12/19 06:33:12;;;;;;;29.40;24.10;;;2.70;99.90;;;;;;5021758;28;20439;-70
2022/12/19 06:35:40;;;;;;;31.05;24.23;;;2.80;99.90;;;;;;5018382;28;20449;-71
2022/12/19 06:38:07;;;;;;;28.15;23.70;;;2.80;99.90;;;;;;5021391;28;20434;-70
2022/12/19 06:43:18;;;;;;;27.23;23.23;;;2.90;99.90;;;;;;5017523;28;20953;-71
2022/12/19 06:45:45;;;;;;;28.60;23.50;;;2.90;99.90;;;;;;5024905;28;20435;-73
2022/12/19 06:48:11;;;;;;;28.08;23.80;;;2.90;99.90;;;;;;5015443;28;20454;-71
2022/12/19 06:50:40;;;;;;;27.63;24.42;;;2.90;99.90;;;;;;5024931;28;21124;-70
2022/12/19 06:53:06;;;;;;;27.75;23.10;;;2.90;99.90;;;;;;5025787;28;20974;-69
2022/12/19 06:55:35;;;;;;;32.15;25.73;;;2.90;99.90;;;;;;5021393;28;20431;-69
2022/12/19 06:58:02;;;;;;;27.98;23.35;;;2.90;99.90;;;;;;5016686;28;20454;-70
2022/12/19 07:00:29;;;;;;;27.65;22.92;;;2.90;99.90;;;;;;5022100;28;20435;-70
2022/12/19 07:02:58;;;;;;;27.92;24.23;;;2.90;99.90;;;;;;5019110;28;20433;-70
2022/12/19 07:05:25;;;;;;;29.20;25.13;;;2.90;99.90;;;;;;5017449;28;21074;-70
2022/12/19 07:07:53;;;;;;;27.40;23.17;;;2.90;99.90;;;;;;5025026;28;20507;-70
2022/12/19 07:10:19;;;;;;;28.95;23.23;;;2.90;99.90;;;;;;5019673;28;20441;-70
2022/12/19 07:12:46;;;;;;;30.48;24.85;;;2.90;99.90;;;;;;5021210;28;20442;-70
2022/12/19 07:15:13;;;;;;;30.25;24.00;;;2.90;99.90;;;;;;5015917;28;20454;-69
2022/12/19 07:17:40;;;;;;;28.98;24.67;;;2.90;99.90;;;;;;5014145;28;20541;-69
2022/12/19 07:20:08;;;;;;;27.65;23.52;;;2.90;99.90;;;;;;5020803;28;20439;-69
2022/12/19 07:22:36;;;;;;;29.27;24.48;;;2.90;99.90;;;;;;5020828;28;20415;-69
2022/12/19 07:25:06;;;;;;;29.60;25.73;;;2.90;99.90;;;;;;5017741;28;20446;-69
2022/12/19 07:27:33;;;;;;;32.70;26.38;;;2.90;99.90;;;;;;5018812;28;20458;-69
2022/12/19 07:29:59;;;;;;;30.10;24.98;;;2.90;99.90;;;;;;5015959;28;20521;-68
2022/12/19 07:32:26;;;;;;;29.08;25.65;;;2.90;99.90;;;;;;5022324;28;20782;-68
2022/12/19 07:34:53;;;;;;;29.00;24.90;;;2.90;99.90;;;;;;5021237;28;20498;-69
2022/12/19 07:37:20;;;;;;;29.30;24.55;;;2.90;99.90;;;;;;5019692;28;20462;-67
2022/12/19 07:39:47;;;;;;;30.63;25.02;;;2.90;99.90;;;;;;5021417;28;20476;-68
2022/12/19 07:42:15;;;;;;;30.52;26.05;;;3.00;99.90;;;;;;5019385;28;20439;-67
2022/12/19 07:44:42;;;;;;;32.28;25.77;;;3.00;99.90;;;;;;5020567;28;20890;-68
2022/12/19 07:47:09;;;;;;;31.50;25.80;;;3.00;99.90;;;;;;5012970;28;20449;-69
2022/12/19 07:49:36;;;;;;;28.98;24.30;;;3.00;99.90;;;;;;5019707;28;20522;-66
2022/12/19 07:52:02;;;;;;;29.30;24.92;;;3.10;99.90;;;;;;5018670;28;20439;-70
2022/12/19 07:54:29;;;;;;;29.67;26.27;;;3.00;99.90;;;;;;5022675;28;20442;-69
2022/12/19 07:56:56;;;;;;;29.60;24.48;;;3.10;99.90;;;;;;5024433;28;21195;-69
2022/12/19 07:59:24;;;;;;;32.30;26.33;;;3.10;99.90;;;;;;5021814;28;20438;-69
2022/12/19 08:01:51;;;;;;;29.63;25.35;;;3.10;99.90;;;;;;5020278;28;20513;-69
2022/12/19 08:04:17;;;;;;;29.08;25.98;;;3.20;99.90;;;;;;5021113;28;20817;-69
2022/12/19 08:06:45;;;;;;;28.85;25.05;;;3.20;99.90;;;;;;5024052;28;20441;-69
2022/12/19 08:09:12;;;;;;;31.02;26.58;;;3.20;99.90;;;;;;5024494;28;20441;-69
2022/12/19 08:11:38;;;;;;;30.90;25.55;;;3.20;99.90;;;;;;5022423;28;20430;-68
2022/12/19 08:14:05;;;;;;;37.25;27.98;;;3.20;99.90;;;;;;5022096;28;20900;-69
2022/12/19 08:16:35;;;;;;;31.23;27.50;;;3.20;99.90;;;;;;5018515;28;20447;-69
2022/12/19 08:19:01;;;;;;;31.10;25.73;;;3.20;99.90;;;;;;5019250;28;20543;-69
2022/12/19 08:21:29;;;;;;;35.90;28.02;;;3.20;99.90;;;;;;5024685;28;20534;-69
2022/12/19 08:23:56;;;;;;;34.63;27.30;;;3.20;99.90;;;;;;5024021;28;20434;-69
2022/12/19 08:26:24;;;;;;;33.40;27.55;;;3.20;99.90;;;;;;5014039;28;21098;-69
2022/12/19 08:28:52;;;;;;;33.03;26.73;;;3.20;99.90;;;;;;5016642;28;20476;-69
2022/12/19 08:31:20;;;;;;;35.35;28.60;;;3.30;99.90;;;;;;5017517;28;20449;-69
2022/12/19 08:33:48;;;;;;;33.88;27.63;;;3.30;99.90;;;;;;5022100;28;20457;-66
2022/12/19 08:36:17;;;;;;;32.47;27.10;;;3.30;99.90;;;;;;5022435;28;20462;-69
2022/12/19 08:38:44;;;;;;;31.80;26.47;;;3.40;99.90;;;;;;5019688;28;20905;-69
2022/12/19 08:41:11;;;;;;;30.25;25.05;;;3.40;99.90;;;;;;5020314;28;20441;-68
2022/12/19 08:43:38;;;;;;;30.65;25.30;;;3.40;99.90;;;;;;5015598;28;21464;-72
2022/12/19 08:46:05;;;;;;;32.28;27.05;;;3.40;99.90;;;;;;5020506;28;20438;-69
2022/12/19 08:48:33;;;;;;;37.05;28.23;;;3.30;99.90;;;;;;5020591;28;20438;-68
2022/12/19 08:51:03;;;;;;;32.63;25.92;;;3.40;99.90;;;;;;5025282;28;20439;-69
2022/12/19 08:53:31;;;;;;;33.50;26.33;;;3.40;99.90;;;;;;5018089;28;20510;-69
2022/12/19 08:56:00;;;;;;;31.83;25.95;;;3.40;99.90;;;;;;5018271;28;20443;-72
2022/12/19 08:58:29;;;;;;;35.42;27.27;;;3.40;99.90;;;;;;5024717;28;20440;-69
2022/12/19 09:00:59;;;;;;;33.95;27.60;;;3.50;99.90;;;;;;5024014;28;20502;-69
2022/12/19 09:03:26;;;;;;;35.30;28.00;;;3.50;99.90;;;;;;5019661;28;20437;-68
2022/12/19 09:05:56;;;;;;;36.00;28.13;;;3.40;99.90;;;;;;5017045;28;20779;-70
2022/12/19 09:08:25;;;;;;;37.05;29.13;;;3.50;99.90;;;;;;5019737;28;20463;-68
2022/12/19 09:10:57;;;;;;;35.47;28.70;;;3.50;99.90;;;;;;5023295;28;20496;-70
2022/12/19 09:13:24;;;;;;;37.20;28.95;;;3.50;99.90;;;;;;5019712;28;20453;-72
2022/12/19 09:15:59;;;;;;;35.85;27.63;;;3.50;99.90;;;;;;5021353;28;20453;-70
2022/12/19 09:18:26;;;;;;;33.90;26.87;;;3.60;99.90;;;;;;5014073;28;20525;-70
2022/12/19 09:20:53;;;;;;;32.95;26.90;;;3.70;99.90;;;;;;5018098;28;20547;-70
2022/12/19 09:23:20;;;;;;;32.10;25.50;;;3.70;99.90;;;;;;5024580;28;20434;-68
2022/12/19 09:25:48;;;;;;;34.90;28.00;;;3.60;99.90;;;;;;5024601;28;20454;-69
2022/12/19 09:28:15;;;;;;;34.60;27.77;;;3.60;99.90;;;;;;5013548;28;20429;-70
2022/12/19 09:30:42;;;;;;;35.67;27.97;;;3.60;99.90;;;;;;5021011;28;20491;-70
2022/12/19 09:33:09;;;;;;;32.67;27.23;;;3.60;99.90;;;;;;5023251;28;20891;-69
2022/12/19 09:35:36;;;;;;;34.03;26.73;;;3.70;99.90;;;;;;5024352;28;20465;-69
2022/12/19 09:38:03;;;;;;;31.38;26.25;;;3.70;99.90;;;;;;5027732;28;20476;-70
2022/12/19 09:40:46;;;;;;;31.85;26.10;;;3.70;99.90;;;;;;5023859;28;20900;-70
2022/12/19 09:43:26;;;;;;;33.58;26.48;;;3.70;99.90;;;;;;5022232;28;20533;-69
2022/12/19 09:46:01;;;;;;;31.67;25.33;;;3.70;99.90;;;;;;5023259;28;20435;-70
2022/12/19 09:48:28;;;;;;;33.87;27.77;;;3.70;99.90;;;;;;5014352;28;20460;-69
2022/12/19 09:51:02;;;;;;;32.22;25.55;;;3.70;99.90;;;;;;5022154;28;20442;-69
2022/12/19 09:53:38;;;;;;;32.35;25.77;;;3.70;99.90;;;;;;5025294;28;20438;-70
2022/12/19 09:56:14;;;;;;;33.10;26.13;;;3.70;99.90;;;;;;5024959;28;20581;-70
2022/12/19 09:58:47;;;;;;;32.35;25.85;;;3.70;99.90;;;;;;5025085;28;20438;-69
2022/12/19 10:01:19;;;;;;;28.67;23.83;;;3.80;99.90;;;;;;5027449;28;20439;-70
2022/12/19 10:03:48;;;;;;;29.33;24.98;;;3.80;99.90;;;;;;5019240;28;20440;-70
2022/12/19 10:06:19;;;;;;;29.10;24.53;;;3.80;99.90;;;;;;5022866;28;20448;-70
2022/12/19 10:08:46;;;;;;;27.85;23.92;;;3.90;99.90;;;;;;5018169;28;20454;-70
2022/12/19 10:11:29;;;;;;;32.05;26.05;;;3.90;99.90;;;;;;5018785;28;20431;-71
2022/12/19 10:14:13;;;;;;;30.27;24.50;;;3.90;99.90;;;;;;5018819;28;20890;-69
2022/12/19 10:16:49;;;;;;;28.63;24.10;;;3.80;99.90;;;;;;5039337;28;20652;-69
2022/12/19 10:19:23;;;;;;;30.42;24.38;;;3.90;99.90;;;;;;5036833;28;20482;-72
2022/12/19 10:22:00;;;;;;;29.70;23.70;;;3.90;99.90;;;;;;5043020;28;20424;-69
2022/12/19 10:25:01;;;;;;;30.65;25.27;;;3.80;99.90;;;;;;5035450;28;20423;-70
2022/12/19 10:27:34;;;;;;;29.23;24.27;;;3.80;99.90;;;;;;5040185;28;20429;-70
2022/12/19 10:30:14;;;;;;;27.02;22.85;;;3.90;99.90;;;;;;5033809;28;20508;-70
2022/12/19 10:32:46;;;;;;;30.35;24.52;;;3.90;99.90;;;;;;5016999;28;20471;-70
2022/12/19 10:35:16;;;;;;;29.05;24.42;;;3.90;99.90;;;;;;5019771;28;20459;-68
2022/12/19 10:37:49;;;;;;;25.60;22.40;;;3.90;99.90;;;;;;5022804;28;20430;-70
2022/12/19 10:40:25;;;;;;;28.08;23.02;;;3.90;99.90;;;;;;5017875;28;20446;-71
2022/12/19 10:42:56;;;;;;;28.17;23.30;;;3.90;99.90;;;;;;5014477;28;20829;-70
2022/12/19 10:45:33;;;;;;;29.45;23.65;;;3.90;99.90;;;;;;5016366;28;20848;-70
2022/12/19 10:48:00;;;;;;;27.05;22.65;;;4.00;99.90;;;;;;5022253;28;20427;-70
2022/12/19 10:50:29;;;;;;;26.92;22.67;;;4.00;99.90;;;;;;5018682;28;20446;-68
2022/12/19 10:53:07;;;;;;;25.77;22.98;;;4.00;99.90;;;;;;5015598;28;20438;-68
2022/12/19 10:55:41;;;;;;;26.63;23.45;;;4.00;99.90;;;;;;5019765;28;20430;-68
2022/12/19 10:58:21;;;;;;;25.50;22.33;;;4.00;99.90;;;;;;5021439;28;20427;-68
2022/12/19 11:01:03;;;;;;;25.98;21.85;;;4.00;99.90;;;;;;5012436;28;20446;-68
2022/12/19 11:03:31;;;;;;;26.08;22.30;;;4.10;99.90;;;;;;5018946;28;20775;-69
2022/12/19 11:05:58;;;;;;;24.15;21.48;;;4.10;99.90;;;;;;5013812;28;20442;-70
2022/12/19 11:08:26;;;;;;;25.23;21.80;;;4.20;99.90;;;;;;5017490;28;20433;-69
2022/12/19 11:10:55;;;;;;;26.38;21.52;;;4.20;99.90;;;;;;5022427;28;20438;-69
2022/12/19 11:13:26;;;;;;;24.85;21.20;;;4.20;99.90;;;;;;5015791;28;20470;-69
2022/12/19 11:15:54;;;;;;;24.58;21.63;;;4.20;99.90;;;;;;5022406;28;20485;-68
2022/12/19 11:18:23;;;;;;;24.70;21.17;;;4.30;99.90;;;;;;5015877;28;20757;-69
2022/12/19 11:21:00;;;;;;;23.92;20.70;;;4.30;99.90;;;;;;5019615;28;20444;-69
2022/12/19 11:23:28;;;;;;;23.30;20.88;;;4.30;99.90;;;;;;5020066;28;20524;-71
2022/12/19 11:25:58;;;;;;;23.88;20.85;;;4.30;99.90;;;;;;5021913;28;20442;-68
2022/12/19 11:28:31;;;;;;;24.35;21.45;;;4.30;99.90;;;;;;5015905;28;20433;-69
2022/12/19 11:31:02;;;;;;;24.80;21.80;;;4.30;99.90;;;;;;5026500;28;20521;-68
2022/12/19 11:33:31;;;;;;;25.20;19.95;;;4.30;99.90;;;;;;5035921;28;21105;-68
2022/12/19 11:36:00;;;;;;;22.60;19.70;;;4.40;99.90;;;;;;5037067;28;20434;-68
2022/12/19 11:38:36;;;;;;;22.55;19.90;;;4.40;99.90;;;;;;5030298;28;20426;-67
2022/12/19 11:41:11;;;;;;;23.23;19.90;;;4.40;99.90;;;;;;5041491;28;20465;-68
2022/12/19 11:43:44;;;;;;;22.77;20.30;;;4.40;99.90;;;;;;5045880;28;20503;-69
2022/12/19 11:46:23;;;;;;;21.55;19.25;;;4.50;99.90;;;;;;5038645;28;20446;-68
2022/12/19 11:48:55;;;;;;;23.47;20.80;;;4.50;99.90;;;;;;5031155;28;20423;-68
2022/12/19 11:51:28;;;;;;;23.55;21.08;;;4.50;99.90;;;;;;5032727;28;20818;-70
2022/12/19 11:54:06;;;;;;;21.77;19.30;;;4.60;99.90;;;;;;5035807;28;20433;-69
2022/12/19 11:56:33;;;;;;;23.35;20.85;;;4.60;99.90;;;;;;5034450;28;20437;-71
2022/12/19 11:59:02;;;;;;;23.40;20.90;;;4.60;99.90;;;;;;5037118;28;20506;-67
2022/12/19 12:01:46;;;;;;;23.63;21.05;;;4.60;99.90;;;;;;5038850;28;20434;-69
2022/12/19 12:04:45;;;;;;;22.25;19.85;;;4.70;99.90;;;;;;5038581;28;20435;-68
2022/12/19 12:07:14;;;;;;;21.75;19.45;;;4.70;99.90;;;;;;5010443;28;20425;-70
2022/12/19 12:09:47;;;;;;;21.40;19.30;;;4.70;99.90;;;;;;5043797;28;20427;-73
2022/12/19 12:12:22;;;;;;;21.25;19.05;;;4.80;99.90;;;;;;5026484;28;20465;-71
2022/12/19 12:15:02;;;;;;;21.63;19.23;;;4.80;99.90;;;;;;5029925;28;21222;-71
2022/12/19 12:17:44;;;;;;;21.38;19.05;;;4.90;99.90;;;;;;5039823;28;20430;-68
2022/12/19 12:20:32;;;;;;;22.52;19.33;;;4.90;99.90;;;;;;5034389;28;20426;-69
2022/12/19 12:23:16;;;;;;;20.63;18.52;;;4.90;99.90;;;;;;5032802;28;20731;-69
2022/12/19 12:25:59;;;;;;;20.45;18.45;;;4.90;99.90;;;;;;5026678;28;20908;-69
2022/12/19 12:28:43;;;;;;;20.65;18.55;;;5.00;99.90;;;;;;5024915;28;20485;-71
2022/12/19 12:31:29;;;;;;;21.20;19.00;;;5.00;99.90;;;;;;5019803;28;20436;-68
2022/12/19 12:34:04;;;;;;;19.85;17.80;;;5.00;99.90;;;;;;5022024;28;20493;-69
2022/12/19 12:36:43;;;;;;;20.10;18.10;;;5.00;99.90;;;;;;5025178;28;20435;-71
2022/12/19 12:39:19;;;;;;;19.30;17.30;;;5.10;99.90;;;;;;5023964;28;20452;-68
2022/12/19 12:42:04;;;;;;;18.73;16.92;;;5.10;99.90;;;;;;5025239;28;21009;-70
2022/12/19 12:44:33;;;;;;;18.75;16.88;;;5.20;99.90;;;;;;5023336;28;20438;-70
2022/12/19 12:47:05;;;;;;;18.63;16.73;;;5.20;99.80;;;;;;5025951;28;20446;-70
2022/12/19 12:49:43;;;;;;;19.02;17.23;;;5.20;99.60;;;;;;5021821;28;20446;-71
2022/12/19 12:52:16;;;;;;;18.15;16.30;;;5.20;99.40;;;;;;5024712;28;20438;-70
2022/12/19 12:54:46;;;;;;;18.30;16.50;;;5.30;99.30;;;;;;5024396;28;20442;-70
2022/12/19 12:57:19;;;;;;;19.57;17.57;;;5.30;98.90;;;;;;5024629;28;20453;-70
2022/12/19 12:59:47;;;;;;;18.30;16.45;;;5.30;98.80;;;;;;5022271;28;20805;-71